sensor_id;sensor_type;location;lat;lon;timestamp;P1;durP1;ratioP1;P2;durP2;ratioP2
78406;SDS011;67692;51.074;-1.790;2024-03-08T00:01:56;41.53;;;16.80;;
78406;SDS011;67692;51.074;-1.790;2024-03-08T00:04:24;41.33;;;16.48;;
78406;SDS011;67692;51.074;-1.790;2024-03-08T00:06:51;46.03;;;18.45;;
78406;SDS011;67692;51.074;-1.790;2024-03-08T00:09:18;44.15;;;18.83;;
78406;SDS011;67692;51.074;-1.790;2024-03-08T00:11:46;47.60;;;18.00;;
78406;SDS011;67692;51.074;-1.790;2024-03-08T00:14:14;44.88;;;18.55;;
78406;SDS011;67692;51.074;-1.790;2024-03-08T00:16:40;45.33;;;17.80;;
78406;SDS011;67692;51.074;-1.790;2024-03-08T00:19:08;45.28;;;18.33;;
78406;SDS011;67692;51.074;-1.790;2024-03-08T00:21:36;50.58;;;19.52;;
78406;SDS011;67692;51.074;-1.790;2024-03-08T00:24:03;49.35;;;16.63;;
78406;SDS011;67692;51.074;-1.790;2024-03-08T00:26:30;44.15;;;16.85;;
78406;SDS011;67692;51.074;-1.790;2024-03-08T00:28:58;41.50;;;16.17;;
78406;SDS011;67692;51.074;-1.790;2024-03-08T00:31:24;50.83;;;19.58;;
78406;SDS011;67692;51.074;-1.790;2024-03-08T00:33:51;41.92;;;17.25;;
78406;SDS011;67692;51.074;-1.790;2024-03-08T00:36:18;48.67;;;18.90;;
78406;SDS011;67692;51.074;-1.790;2024-03-08T00:38:46;45.08;;;18.48;;
78406;SDS011;67692;51.074;-1.790;2024-03-08T00:41:13;43.47;;;19.27;;
78406;SDS011;67692;51.074;-1.790;2024-03-08T00:43:40;45.55;;;19.30;;
78406;SDS011;67692;51.074;-1.790;2024-03-08T00:46:06;43.08;;;19.40;;
78406;SDS011;67692;51.074;-1.790;2024-03-08T00:48:33;47.63;;;17.83;;
78406;SDS011;67692;51.074;-1.790;2024-03-08T00:50:59;46.38;;;19.77;;
78406;SDS011;67692;51.074;-1.790;2024-03-08T00:53:27;43.90;;;17.42;;
78406;SDS011;67692;51.074;-1.790;2024-03-08T00:55:55;47.38;;;19.20;;
78406;SDS011;67692;51.074;-1.790;2024-03-08T00:58:22;46.63;;;18.65;;
78406;SDS011;67692;51.074;-1.790;2024-03-08T01:00:48;42.80;;;15.60;;
78406;SDS011;67692;51.074;-1.790;2024-03-08T01:03:15;51.88;;;18.63;;
78406;SDS011;67692;51.074;-1.790;2024-03-08T01:05:42;50.10;;;18.55;;
78406;SDS011;67692;51.074;-1.790;2024-03-08T01:08:09;50.33;;;19.35;;
78406;SDS011;67692;51.074;-1.790;2024-03-08T01:10:36;48.55;;;19.15;;
78406;SDS011;67692;51.074;-1.790;2024-03-08T01:13:04;45.00;;;17.23;;
78406;SDS011;67692;51.074;-1.790;2024-03-08T01:15:31;47.58;;;20.58;;
78406;SDS011;67692;51.074;-1.790;2024-03-08T01:17:58;47.45;;;18.63;;
78406;SDS011;67692;51.074;-1.790;2024-03-08T01:20:26;49.50;;;17.85;;
78406;SDS011;67692;51.074;-1.790;2024-03-08T01:22:53;55.25;;;19.70;;
78406;SDS011;67692;51.074;-1.790;2024-03-08T01:25:19;46.53;;;19.27;;
78406;SDS011;67692;51.074;-1.790;2024-03-08T01:27:46;51.63;;;19.45;;
78406;SDS011;67692;51.074;-1.790;2024-03-08T01:30:14;52.20;;;20.20;;
78406;SDS011;67692;51.074;-1.790;2024-03-08T01:32:42;51.22;;;21.60;;
78406;SDS011;67692;51.074;-1.790;2024-03-08T01:35:09;49.15;;;18.42;;
78406;SDS011;67692;51.074;-1.790;2024-03-08T01:37:36;55.13;;;20.73;;
78406;SDS011;67692;51.074;-1.790;2024-03-08T01:40:03;49.72;;;19.02;;
78406;SDS011;67692;51.074;-1.790;2024-03-08T01:42:30;58.85;;;20.50;;
78406;SDS011;67692;51.074;-1.790;2024-03-08T01:44:56;47.05;;;20.65;;
78406;SDS011;67692;51.074;-1.790;2024-03-08T01:47:24;52.13;;;20.60;;
78406;SDS011;67692;51.074;-1.790;2024-03-08T01:49:51;52.15;;;19.55;;
78406;SDS011;67692;51.074;-1.790;2024-03-08T01:52:19;60.10;;;21.35;;
78406;SDS011;67692;51.074;-1.790;2024-03-08T01:54:46;59.70;;;19.85;;
78406;SDS011;67692;51.074;-1.790;2024-03-08T01:57:12;47.92;;;18.83;;
78406;SDS011;67692;51.074;-1.790;2024-03-08T01:59:40;56.47;;;21.05;;
78406;SDS011;67692;51.074;-1.790;2024-03-08T02:02:07;53.88;;;20.02;;
78406;SDS011;67692;51.074;-1.790;2024-03-08T02:04:39;57.92;;;19.52;;
78406;SDS011;67692;51.074;-1.790;2024-03-08T02:07:06;48.20;;;19.70;;
78406;SDS011;67692;51.074;-1.790;2024-03-08T02:09:33;53.15;;;20.77;;
78406;SDS011;67692;51.074;-1.790;2024-03-08T02:12:00;57.35;;;23.17;;
78406;SDS011;67692;51.074;-1.790;2024-03-08T02:14:26;57.72;;;20.85;;
78406;SDS011;67692;51.074;-1.790;2024-03-08T02:16:53;58.92;;;22.67;;
78406;SDS011;67692;51.074;-1.790;2024-03-08T02:19:22;57.85;;;21.23;;
78406;SDS011;67692;51.074;-1.790;2024-03-08T02:21:51;53.20;;;21.15;;
78406;SDS011;67692;51.074;-1.790;2024-03-08T02:24:17;49.30;;;20.95;;
78406;SDS011;67692;51.074;-1.790;2024-03-08T02:26:44;53.30;;;21.65;;
78406;SDS011;67692;51.074;-1.790;2024-03-08T02:29:11;49.65;;;20.05;;
78406;SDS011;67692;51.074;-1.790;2024-03-08T02:31:39;50.85;;;18.77;;
78406;SDS011;67692;51.074;-1.790;2024-03-08T02:34:06;50.65;;;21.08;;
78406;SDS011;67692;51.074;-1.790;2024-03-08T02:36:33;56.30;;;20.30;;
78406;SDS011;67692;51.074;-1.790;2024-03-08T02:39:02;56.50;;;21.50;;
78406;SDS011;67692;51.074;-1.790;2024-03-08T02:41:30;56.30;;;21.98;;
78406;SDS011;67692;51.074;-1.790;2024-03-08T02:43:57;53.97;;;21.45;;
78406;SDS011;67692;51.074;-1.790;2024-03-08T02:46:25;59.35;;;20.83;;
78406;SDS011;67692;51.074;-1.790;2024-03-08T02:48:53;55.53;;;21.10;;
78406;SDS011;67692;51.074;-1.790;2024-03-08T02:51:20;52.65;;;19.67;;
78406;SDS011;67692;51.074;-1.790;2024-03-08T02:53:46;54.63;;;20.95;;
78406;SDS011;67692;51.074;-1.790;2024-03-08T02:56:18;44.83;;;16.45;;
78406;SDS011;67692;51.074;-1.790;2024-03-08T02:58:46;51.88;;;17.98;;
78406;SDS011;67692;51.074;-1.790;2024-03-08T03:01:13;52.53;;;21.35;;
78406;SDS011;67692;51.074;-1.790;2024-03-08T03:03:40;52.08;;;20.95;;
78406;SDS011;67692;51.074;-1.790;2024-03-08T03:06:07;58.75;;;22.73;;
78406;SDS011;67692;51.074;-1.790;2024-03-08T03:08:33;57.75;;;22.30;;
78406;SDS011;67692;51.074;-1.790;2024-03-08T03:11:00;55.08;;;22.33;;
78406;SDS011;67692;51.074;-1.790;2024-03-08T03:13:28;49.65;;;19.08;;
78406;SDS011;67692;51.074;-1.790;2024-03-08T03:15:55;57.40;;;22.58;;
78406;SDS011;67692;51.074;-1.790;2024-03-08T03:18:23;55.15;;;21.20;;
78406;SDS011;67692;51.074;-1.790;2024-03-08T03:20:51;51.97;;;21.55;;
78406;SDS011;67692;51.074;-1.790;2024-03-08T03:23:18;57.20;;;23.02;;
78406;SDS011;67692;51.074;-1.790;2024-03-08T03:25:45;56.47;;;21.75;;
78406;SDS011;67692;51.074;-1.790;2024-03-08T03:28:12;49.55;;;20.27;;
78406;SDS011;67692;51.074;-1.790;2024-03-08T03:30:44;52.13;;;22.45;;
78406;SDS011;67692;51.074;-1.790;2024-03-08T03:33:11;62.50;;;21.25;;
78406;SDS011;67692;51.074;-1.790;2024-03-08T03:35:40;55.85;;;21.77;;
78406;SDS011;67692;51.074;-1.790;2024-03-08T03:38:08;55.83;;;21.60;;
78406;SDS011;67692;51.074;-1.790;2024-03-08T03:40:35;60.45;;;22.77;;
78406;SDS011;67692;51.074;-1.790;2024-03-08T03:43:02;55.25;;;21.33;;
78406;SDS011;67692;51.074;-1.790;2024-03-08T03:45:29;57.90;;;21.27;;
78406;SDS011;67692;51.074;-1.790;2024-03-08T03:48:01;61.03;;;23.65;;
78406;SDS011;67692;51.074;-1.790;2024-03-08T03:50:28;53.67;;;21.38;;
78406;SDS011;67692;51.074;-1.790;2024-03-08T03:52:55;55.17;;;21.40;;
78406;SDS011;67692;51.074;-1.790;2024-03-08T03:55:22;56.17;;;20.80;;
78406;SDS011;67692;51.074;-1.790;2024-03-08T03:57:48;49.42;;;20.67;;
78406;SDS011;67692;51.074;-1.790;2024-03-08T04:00:15;57.92;;;22.00;;
78406;SDS011;67692;51.074;-1.790;2024-03-08T04:02:42;62.72;;;22.48;;
78406;SDS011;67692;51.074;-1.790;2024-03-08T04:05:11;56.78;;;20.77;;
78406;SDS011;67692;51.074;-1.790;2024-03-08T04:07:38;60.78;;;23.48;;
78406;SDS011;67692;51.074;-1.790;2024-03-08T04:10:05;60.72;;;24.10;;
78406;SDS011;67692;51.074;-1.790;2024-03-08T04:12:33;58.38;;;21.73;;
78406;SDS011;67692;51.074;-1.790;2024-03-08T04:15:00;54.10;;;22.60;;
78406;SDS011;67692;51.074;-1.790;2024-03-08T04:17:28;58.28;;;24.13;;
78406;SDS011;67692;51.074;-1.790;2024-03-08T04:19:54;53.05;;;21.17;;
78406;SDS011;67692;51.074;-1.790;2024-03-08T04:22:23;56.08;;;22.17;;
78406;SDS011;67692;51.074;-1.790;2024-03-08T04:24:50;53.30;;;23.08;;
78406;SDS011;67692;51.074;-1.790;2024-03-08T04:27:17;57.42;;;22.70;;
78406;SDS011;67692;51.074;-1.790;2024-03-08T04:29:44;58.95;;;21.35;;
78406;SDS011;67692;51.074;-1.790;2024-03-08T04:32:11;52.17;;;22.10;;
78406;SDS011;67692;51.074;-1.790;2024-03-08T04:34:38;64.78;;;24.23;;
78406;SDS011;67692;51.074;-1.790;2024-03-08T04:37:05;57.42;;;22.02;;
78406;SDS011;67692;51.074;-1.790;2024-03-08T04:39:33;52.88;;;21.65;;
78406;SDS011;67692;51.074;-1.790;2024-03-08T04:42:01;52.28;;;20.15;;
78406;SDS011;67692;51.074;-1.790;2024-03-08T04:44:29;56.08;;;22.13;;
78406;SDS011;67692;51.074;-1.790;2024-03-08T04:46:56;54.13;;;21.92;;
78406;SDS011;67692;51.074;-1.790;2024-03-08T04:49:24;56.17;;;20.98;;
78406;SDS011;67692;51.074;-1.790;2024-03-08T04:51:50;61.33;;;21.55;;
78406;SDS011;67692;51.074;-1.790;2024-03-08T04:54:17;55.42;;;21.33;;
78406;SDS011;67692;51.074;-1.790;2024-03-08T04:56:45;58.25;;;22.42;;
78406;SDS011;67692;51.074;-1.790;2024-03-08T04:59:12;62.65;;;20.52;;
78406;SDS011;67692;51.074;-1.790;2024-03-08T05:01:39;51.03;;;20.48;;
78406;SDS011;67692;51.074;-1.790;2024-03-08T05:04:05;50.75;;;19.30;;
78406;SDS011;67692;51.074;-1.790;2024-03-08T05:06:32;64.00;;;23.13;;
78406;SDS011;67692;51.074;-1.790;2024-03-08T05:08:58;59.33;;;23.05;;
78406;SDS011;67692;51.074;-1.790;2024-03-08T05:11:25;57.20;;;20.95;;
78406;SDS011;67692;51.074;-1.790;2024-03-08T05:13:53;53.50;;;21.35;;
78406;SDS011;67692;51.074;-1.790;2024-03-08T05:16:20;60.30;;;21.05;;
78406;SDS011;67692;51.074;-1.790;2024-03-08T05:18:49;55.35;;;21.67;;
78406;SDS011;67692;51.074;-1.790;2024-03-08T05:21:16;58.58;;;21.95;;
78406;SDS011;67692;51.074;-1.790;2024-03-08T05:23:45;50.42;;;18.50;;
78406;SDS011;67692;51.074;-1.790;2024-03-08T05:26:12;57.33;;;22.15;;
78406;SDS011;67692;51.074;-1.790;2024-03-08T05:28:39;56.47;;;22.33;;
78406;SDS011;67692;51.074;-1.790;2024-03-08T05:31:07;38.90;;;17.42;;
78406;SDS011;67692;51.074;-1.790;2024-03-08T05:33:33;46.90;;;19.20;;
78406;SDS011;67692;51.074;-1.790;2024-03-08T05:36:00;46.85;;;18.52;;
78406;SDS011;67692;51.074;-1.790;2024-03-08T05:38:27;54.58;;;19.23;;
78406;SDS011;67692;51.074;-1.790;2024-03-08T05:40:54;57.40;;;20.33;;
78406;SDS011;67692;51.074;-1.790;2024-03-08T05:43:21;49.00;;;19.35;;
78406;SDS011;67692;51.074;-1.790;2024-03-08T05:45:48;47.25;;;18.83;;
78406;SDS011;67692;51.074;-1.790;2024-03-08T05:48:16;53.65;;;19.95;;
78406;SDS011;67692;51.074;-1.790;2024-03-08T05:50:43;50.25;;;19.83;;
78406;SDS011;67692;51.074;-1.790;2024-03-08T05:53:10;55.67;;;18.92;;
78406;SDS011;67692;51.074;-1.790;2024-03-08T05:55:38;55.15;;;19.88;;
78406;SDS011;67692;51.074;-1.790;2024-03-08T05:58:05;46.75;;;20.05;;
78406;SDS011;67692;51.074;-1.790;2024-03-08T06:00:33;51.70;;;19.67;;
78406;SDS011;67692;51.074;-1.790;2024-03-08T06:03:01;48.95;;;18.70;;
78406;SDS011;67692;51.074;-1.790;2024-03-08T06:05:29;50.45;;;19.25;;
78406;SDS011;67692;51.074;-1.790;2024-03-08T06:07:56;49.00;;;18.88;;
78406;SDS011;67692;51.074;-1.790;2024-03-08T06:10:23;49.40;;;20.35;;
78406;SDS011;67692;51.074;-1.790;2024-03-08T06:12:50;48.70;;;20.08;;
78406;SDS011;67692;51.074;-1.790;2024-03-08T06:15:16;42.30;;;16.48;;
78406;SDS011;67692;51.074;-1.790;2024-03-08T06:17:45;50.35;;;20.17;;
78406;SDS011;67692;51.074;-1.790;2024-03-08T06:20:12;48.63;;;19.13;;
78406;SDS011;67692;51.074;-1.790;2024-03-08T06:22:40;49.75;;;17.88;;
78406;SDS011;67692;51.074;-1.790;2024-03-08T06:25:07;52.58;;;19.90;;
78406;SDS011;67692;51.074;-1.790;2024-03-08T06:27:36;46.65;;;17.98;;
78406;SDS011;67692;51.074;-1.790;2024-03-08T06:30:03;49.20;;;18.45;;
78406;SDS011;67692;51.074;-1.790;2024-03-08T06:32:31;49.45;;;16.83;;
78406;SDS011;67692;51.074;-1.790;2024-03-08T06:35:00;52.03;;;19.30;;
78406;SDS011;67692;51.074;-1.790;2024-03-08T06:37:27;45.47;;;16.45;;
78406;SDS011;67692;51.074;-1.790;2024-03-08T06:39:58;43.45;;;17.55;;
78406;SDS011;67692;51.074;-1.790;2024-03-08T06:42:25;46.13;;;18.25;;
78406;SDS011;67692;51.074;-1.790;2024-03-08T06:44:52;46.13;;;18.30;;
78406;SDS011;67692;51.074;-1.790;2024-03-08T06:47:21;47.40;;;17.90;;
78406;SDS011;67692;51.074;-1.790;2024-03-08T06:49:50;60.03;;;19.80;;
78406;SDS011;67692;51.074;-1.790;2024-03-08T06:52:17;45.90;;;17.52;;
78406;SDS011;67692;51.074;-1.790;2024-03-08T06:54:44;49.78;;;19.80;;
78406;SDS011;67692;51.074;-1.790;2024-03-08T06:57:12;44.85;;;16.85;;
78406;SDS011;67692;51.074;-1.790;2024-03-08T06:59:39;41.75;;;17.23;;
78406;SDS011;67692;51.074;-1.790;2024-03-08T07:02:05;43.17;;;17.92;;
78406;SDS011;67692;51.074;-1.790;2024-03-08T07:04:34;44.72;;;17.98;;
78406;SDS011;67692;51.074;-1.790;2024-03-08T07:07:03;46.88;;;17.05;;
78406;SDS011;67692;51.074;-1.790;2024-03-08T07:09:29;42.22;;;17.23;;
78406;SDS011;67692;51.074;-1.790;2024-03-08T07:11:57;39.88;;;15.40;;
78406;SDS011;67692;51.074;-1.790;2024-03-08T07:14:25;44.65;;;17.85;;
78406;SDS011;67692;51.074;-1.790;2024-03-08T07:16:52;39.60;;;15.15;;
78406;SDS011;67692;51.074;-1.790;2024-03-08T07:19:18;46.15;;;17.70;;
78406;SDS011;67692;51.074;-1.790;2024-03-08T07:21:46;40.95;;;16.80;;
78406;SDS011;67692;51.074;-1.790;2024-03-08T07:24:13;44.92;;;17.60;;
78406;SDS011;67692;51.074;-1.790;2024-03-08T07:26:58;41.08;;;16.80;;
78406;SDS011;67692;51.074;-1.790;2024-03-08T07:29:26;41.63;;;17.20;;
78406;SDS011;67692;51.074;-1.790;2024-03-08T07:31:53;43.75;;;17.05;;
78406;SDS011;67692;51.074;-1.790;2024-03-08T07:34:33;43.10;;;17.20;;
78406;SDS011;67692;51.074;-1.790;2024-03-08T07:36:59;43.15;;;16.65;;
78406;SDS011;67692;51.074;-1.790;2024-03-08T07:39:26;40.65;;;16.60;;
78406;SDS011;67692;51.074;-1.790;2024-03-08T07:41:52;43.03;;;16.42;;
78406;SDS011;67692;51.074;-1.790;2024-03-08T07:44:19;48.85;;;17.42;;
78406;SDS011;67692;51.074;-1.790;2024-03-08T07:46:47;42.50;;;15.80;;
78406;SDS011;67692;51.074;-1.790;2024-03-08T07:49:14;51.17;;;17.80;;
78406;SDS011;67692;51.074;-1.790;2024-03-08T07:51:40;33.53;;;14.25;;
78406;SDS011;67692;51.074;-1.790;2024-03-08T07:54:07;39.40;;;15.20;;
78406;SDS011;67692;51.074;-1.790;2024-03-08T07:56:34;40.53;;;17.10;;
78406;SDS011;67692;51.074;-1.790;2024-03-08T07:59:02;39.13;;;14.43;;
78406;SDS011;67692;51.074;-1.790;2024-03-08T08:01:29;35.38;;;14.68;;
78406;SDS011;67692;51.074;-1.790;2024-03-08T08:03:57;40.72;;;17.15;;
78406;SDS011;67692;51.074;-1.790;2024-03-08T08:06:24;38.00;;;15.88;;
78406;SDS011;67692;51.074;-1.790;2024-03-08T08:08:50;46.35;;;18.60;;
78406;SDS011;67692;51.074;-1.790;2024-03-08T08:11:17;30.42;;;11.82;;
78406;SDS011;67692;51.074;-1.790;2024-03-08T08:13:45;45.63;;;16.80;;
78406;SDS011;67692;51.074;-1.790;2024-03-08T08:16:12;38.05;;;15.93;;
78406;SDS011;67692;51.074;-1.790;2024-03-08T08:18:39;26.38;;;10.52;;
78406;SDS011;67692;51.074;-1.790;2024-03-08T08:21:07;40.22;;;16.33;;
78406;SDS011;67692;51.074;-1.790;2024-03-08T08:23:35;27.15;;;11.60;;
78406;SDS011;67692;51.074;-1.790;2024-03-08T08:26:03;39.17;;;14.85;;
78406;SDS011;67692;51.074;-1.790;2024-03-08T08:28:30;36.50;;;14.25;;
78406;SDS011;67692;51.074;-1.790;2024-03-08T08:30:56;40.47;;;16.67;;
78406;SDS011;67692;51.074;-1.790;2024-03-08T08:33:24;36.58;;;15.23;;
78406;SDS011;67692;51.074;-1.790;2024-03-08T08:35:51;27.27;;;12.23;;
78406;SDS011;67692;51.074;-1.790;2024-03-08T08:38:20;38.25;;;15.30;;
78406;SDS011;67692;51.074;-1.790;2024-03-08T08:40:48;37.20;;;15.60;;
78406;SDS011;67692;51.074;-1.790;2024-03-08T08:43:15;38.00;;;15.43;;
78406;SDS011;67692;51.074;-1.790;2024-03-08T08:45:42;32.88;;;12.32;;
78406;SDS011;67692;51.074;-1.790;2024-03-08T08:48:09;34.20;;;14.30;;
78406;SDS011;67692;51.074;-1.790;2024-03-08T08:50:36;34.65;;;14.82;;
78406;SDS011;67692;51.074;-1.790;2024-03-08T08:53:03;43.45;;;15.60;;
78406;SDS011;67692;51.074;-1.790;2024-03-08T08:55:33;36.20;;;14.40;;
78406;SDS011;67692;51.074;-1.790;2024-03-08T08:58:01;28.00;;;11.73;;
78406;SDS011;67692;51.074;-1.790;2024-03-08T09:00:28;41.10;;;15.50;;
78406;SDS011;67692;51.074;-1.790;2024-03-08T09:02:56;33.28;;;13.25;;
78406;SDS011;67692;51.074;-1.790;2024-03-08T09:05:24;26.13;;;12.30;;
78406;SDS011;67692;51.074;-1.790;2024-03-08T09:07:51;33.67;;;14.25;;
78406;SDS011;67692;51.074;-1.790;2024-03-08T09:10:19;33.75;;;13.05;;
78406;SDS011;67692;51.074;-1.790;2024-03-08T09:12:47;31.23;;;12.35;;
78406;SDS011;67692;51.074;-1.790;2024-03-08T09:15:14;25.13;;;10.80;;
78406;SDS011;67692;51.074;-1.790;2024-03-08T09:17:43;36.80;;;14.88;;
78406;SDS011;67692;51.074;-1.790;2024-03-08T09:20:10;33.75;;;14.45;;
78406;SDS011;67692;51.074;-1.790;2024-03-08T09:22:40;33.80;;;14.35;;
78406;SDS011;67692;51.074;-1.790;2024-03-08T09:25:06;39.03;;;14.38;;
78406;SDS011;67692;51.074;-1.790;2024-03-08T09:27:34;35.40;;;14.18;;
78406;SDS011;67692;51.074;-1.790;2024-03-08T09:30:03;32.83;;;14.05;;
78406;SDS011;67692;51.074;-1.790;2024-03-08T09:34:58;32.95;;;12.50;;
78406;SDS011;67692;51.074;-1.790;2024-03-08T09:37:26;35.67;;;13.48;;
78406;SDS011;67692;51.074;-1.790;2024-03-08T09:39:53;27.95;;;11.20;;
78406;SDS011;67692;51.074;-1.790;2024-03-08T09:42:19;32.90;;;13.38;;
78406;SDS011;67692;51.074;-1.790;2024-03-08T09:44:46;28.85;;;12.32;;
78406;SDS011;67692;51.074;-1.790;2024-03-08T09:47:14;26.63;;;12.75;;
78406;SDS011;67692;51.074;-1.790;2024-03-08T09:49:42;34.33;;;12.85;;
78406;SDS011;67692;51.074;-1.790;2024-03-08T09:52:09;25.88;;;10.27;;
78406;SDS011;67692;51.074;-1.790;2024-03-08T09:54:37;34.13;;;11.88;;
78406;SDS011;67692;51.074;-1.790;2024-03-08T09:57:04;36.08;;;14.27;;
78406;SDS011;67692;51.074;-1.790;2024-03-08T09:59:34;32.13;;;13.05;;
78406;SDS011;67692;51.074;-1.790;2024-03-08T10:02:15;30.13;;;12.88;;
78406;SDS011;67692;51.074;-1.790;2024-03-08T10:04:42;30.95;;;13.23;;
78406;SDS011;67692;51.074;-1.790;2024-03-08T10:07:11;26.88;;;11.55;;
78406;SDS011;67692;51.074;-1.790;2024-03-08T10:09:38;33.58;;;12.45;;
78406;SDS011;67692;51.074;-1.790;2024-03-08T10:12:05;28.80;;;11.93;;
78406;SDS011;67692;51.074;-1.790;2024-03-08T10:14:33;31.90;;;12.00;;
78406;SDS011;67692;51.074;-1.790;2024-03-08T10:16:59;32.42;;;13.00;;
78406;SDS011;67692;51.074;-1.790;2024-03-08T10:19:27;30.98;;;13.38;;
78406;SDS011;67692;51.074;-1.790;2024-03-08T10:21:55;30.40;;;11.88;;
78406;SDS011;67692;51.074;-1.790;2024-03-08T10:24:23;27.38;;;10.48;;
78406;SDS011;67692;51.074;-1.790;2024-03-08T10:26:51;30.40;;;11.85;;
78406;SDS011;67692;51.074;-1.790;2024-03-08T10:29:18;28.15;;;12.10;;
78406;SDS011;67692;51.074;-1.790;2024-03-08T10:31:46;27.77;;;12.40;;
78406;SDS011;67692;51.074;-1.790;2024-03-08T10:34:15;30.15;;;11.38;;
78406;SDS011;67692;51.074;-1.790;2024-03-08T10:36:43;36.78;;;12.07;;
78406;SDS011;67692;51.074;-1.790;2024-03-08T10:39:13;20.08;;;9.38;;
78406;SDS011;67692;51.074;-1.790;2024-03-08T10:41:49;27.58;;;11.05;;
78406;SDS011;67692;51.074;-1.790;2024-03-08T10:44:23;36.45;;;14.45;;
78406;SDS011;67692;51.074;-1.790;2024-03-08T10:47:00;26.25;;;12.23;;
78406;SDS011;67692;51.074;-1.790;2024-03-08T10:49:31;31.05;;;11.75;;
78406;SDS011;67692;51.074;-1.790;2024-03-08T10:52:02;25.13;;;11.00;;
78406;SDS011;67692;51.074;-1.790;2024-03-08T10:54:30;30.52;;;11.55;;
78406;SDS011;67692;51.074;-1.790;2024-03-08T10:56:58;21.00;;;8.95;;
78406;SDS011;67692;51.074;-1.790;2024-03-08T10:59:26;27.02;;;10.32;;
78406;SDS011;67692;51.074;-1.790;2024-03-08T11:01:53;28.98;;;12.35;;
78406;SDS011;67692;51.074;-1.790;2024-03-08T11:04:20;20.85;;;9.18;;
78406;SDS011;67692;51.074;-1.790;2024-03-08T11:06:48;32.30;;;12.88;;
78406;SDS011;67692;51.074;-1.790;2024-03-08T11:09:28;32.05;;;11.77;;
78406;SDS011;67692;51.074;-1.790;2024-03-08T11:14:45;22.98;;;9.98;;
78406;SDS011;67692;51.074;-1.790;2024-03-08T11:17:15;25.90;;;12.45;;
78406;SDS011;67692;51.074;-1.790;2024-03-08T11:19:45;27.05;;;11.43;;
78406;SDS011;67692;51.074;-1.790;2024-03-08T11:22:20;27.75;;;10.85;;
78406;SDS011;67692;51.074;-1.790;2024-03-08T11:24:50;24.48;;;10.27;;
78406;SDS011;67692;51.074;-1.790;2024-03-08T11:27:17;25.80;;;10.02;;
78406;SDS011;67692;51.074;-1.790;2024-03-08T11:29:45;28.02;;;11.60;;
78406;SDS011;67692;51.074;-1.790;2024-03-08T11:32:27;23.27;;;10.15;;
78406;SDS011;67692;51.074;-1.790;2024-03-08T11:34:55;25.33;;;9.75;;
78406;SDS011;67692;51.074;-1.790;2024-03-08T11:37:22;23.42;;;9.57;;
78406;SDS011;67692;51.074;-1.790;2024-03-08T11:39:51;25.73;;;10.05;;
78406;SDS011;67692;51.074;-1.790;2024-03-08T11:42:23;19.50;;;8.02;;
78406;SDS011;67692;51.074;-1.790;2024-03-08T11:44:51;23.40;;;10.50;;
78406;SDS011;67692;51.074;-1.790;2024-03-08T11:47:20;20.15;;;8.68;;
78406;SDS011;67692;51.074;-1.790;2024-03-08T11:49:47;23.85;;;9.15;;
78406;SDS011;67692;51.074;-1.790;2024-03-08T11:52:15;23.00;;;9.93;;
78406;SDS011;67692;51.074;-1.790;2024-03-08T11:54:42;23.02;;;9.32;;
78406;SDS011;67692;51.074;-1.790;2024-03-08T11:57:16;19.90;;;8.32;;
78406;SDS011;67692;51.074;-1.790;2024-03-08T11:59:49;21.60;;;8.80;;
78406;SDS011;67692;51.074;-1.790;2024-03-08T12:02:16;20.10;;;8.80;;
78406;SDS011;67692;51.074;-1.790;2024-03-08T12:04:44;24.10;;;9.07;;
78406;SDS011;67692;51.074;-1.790;2024-03-08T12:07:11;19.38;;;8.75;;
78406;SDS011;67692;51.074;-1.790;2024-03-08T12:09:39;15.77;;;7.60;;
78406;SDS011;67692;51.074;-1.790;2024-03-08T12:12:11;20.83;;;8.90;;
78406;SDS011;67692;51.074;-1.790;2024-03-08T12:14:39;21.98;;;7.68;;
78406;SDS011;67692;51.074;-1.790;2024-03-08T12:17:09;21.52;;;8.68;;
78406;SDS011;67692;51.074;-1.790;2024-03-08T12:19:36;14.80;;;5.75;;
78406;SDS011;67692;51.074;-1.790;2024-03-08T12:22:07;24.00;;;8.88;;
78406;SDS011;67692;51.074;-1.790;2024-03-08T12:24:35;17.20;;;8.07;;
78406;SDS011;67692;51.074;-1.790;2024-03-08T12:27:10;19.73;;;7.47;;
78406;SDS011;67692;51.074;-1.790;2024-03-08T12:29:45;17.80;;;7.38;;
78406;SDS011;67692;51.074;-1.790;2024-03-08T12:32:12;20.85;;;7.78;;
78406;SDS011;67692;51.074;-1.790;2024-03-08T12:34:39;20.15;;;8.57;;
78406;SDS011;67692;51.074;-1.790;2024-03-08T12:37:06;20.90;;;8.50;;
78406;SDS011;67692;51.074;-1.790;2024-03-08T12:39:34;19.33;;;8.57;;
78406;SDS011;67692;51.074;-1.790;2024-03-08T12:42:02;24.67;;;9.80;;
78406;SDS011;67692;51.074;-1.790;2024-03-08T12:44:29;17.58;;;8.02;;
78406;SDS011;67692;51.074;-1.790;2024-03-08T12:46:57;21.10;;;9.05;;
78406;SDS011;67692;51.074;-1.790;2024-03-08T12:49:24;18.23;;;7.88;;
78406;SDS011;67692;51.074;-1.790;2024-03-08T12:51:52;20.23;;;8.30;;
78406;SDS011;67692;51.074;-1.790;2024-03-08T12:54:18;24.70;;;8.35;;
78406;SDS011;67692;51.074;-1.790;2024-03-08T12:56:48;18.52;;;7.90;;
78406;SDS011;67692;51.074;-1.790;2024-03-08T12:59:18;20.38;;;7.65;;
78406;SDS011;67692;51.074;-1.790;2024-03-08T13:01:46;17.42;;;8.27;;
78406;SDS011;67692;51.074;-1.790;2024-03-08T13:04:14;18.83;;;7.68;;
78406;SDS011;67692;51.074;-1.790;2024-03-08T13:06:41;21.77;;;8.23;;
78406;SDS011;67692;51.074;-1.790;2024-03-08T13:09:08;18.25;;;7.68;;
78406;SDS011;67692;51.074;-1.790;2024-03-08T13:11:34;20.73;;;8.23;;
78406;SDS011;67692;51.074;-1.790;2024-03-08T13:14:02;18.20;;;8.43;;
78406;SDS011;67692;51.074;-1.790;2024-03-08T13:16:30;23.25;;;8.27;;
78406;SDS011;67692;51.074;-1.790;2024-03-08T13:18:57;19.95;;;8.02;;
78406;SDS011;67692;51.074;-1.790;2024-03-08T13:21:25;23.20;;;8.57;;
78406;SDS011;67692;51.074;-1.790;2024-03-08T13:23:52;18.23;;;7.57;;
78406;SDS011;67692;51.074;-1.790;2024-03-08T13:26:20;20.00;;;7.93;;
78406;SDS011;67692;51.074;-1.790;2024-03-08T13:28:46;21.08;;;10.02;;
78406;SDS011;67692;51.074;-1.790;2024-03-08T13:31:18;19.50;;;8.82;;
78406;SDS011;67692;51.074;-1.790;2024-03-08T13:33:45;19.45;;;8.80;;
78406;SDS011;67692;51.074;-1.790;2024-03-08T13:36:12;17.88;;;8.43;;
78406;SDS011;67692;51.074;-1.790;2024-03-08T13:38:43;20.42;;;8.43;;
78406;SDS011;67692;51.074;-1.790;2024-03-08T13:41:10;19.60;;;8.80;;
78406;SDS011;67692;51.074;-1.790;2024-03-08T13:43:39;17.48;;;8.27;;
78406;SDS011;67692;51.074;-1.790;2024-03-08T13:46:06;18.10;;;7.43;;
78406;SDS011;67692;51.074;-1.790;2024-03-08T13:48:33;18.60;;;7.90;;
78406;SDS011;67692;51.074;-1.790;2024-03-08T13:50:59;18.90;;;8.30;;
78406;SDS011;67692;51.074;-1.790;2024-03-08T13:53:26;15.90;;;7.72;;
78406;SDS011;67692;51.074;-1.790;2024-03-08T13:55:54;17.00;;;8.05;;
78406;SDS011;67692;51.074;-1.790;2024-03-08T13:58:21;16.90;;;7.63;;
78406;SDS011;67692;51.074;-1.790;2024-03-08T14:00:49;20.75;;;8.32;;
78406;SDS011;67692;51.074;-1.790;2024-03-08T14:03:16;19.38;;;8.73;;
78406;SDS011;67692;51.074;-1.790;2024-03-08T14:05:43;16.65;;;8.15;;
78406;SDS011;67692;51.074;-1.790;2024-03-08T14:08:11;22.83;;;8.80;;
78406;SDS011;67692;51.074;-1.790;2024-03-08T14:10:39;17.70;;;7.55;;
78406;SDS011;67692;51.074;-1.790;2024-03-08T14:13:08;17.88;;;7.72;;
78406;SDS011;67692;51.074;-1.790;2024-03-08T14:15:36;19.70;;;8.18;;
78406;SDS011;67692;51.074;-1.790;2024-03-08T14:18:07;9.98;;;5.30;;
78406;SDS011;67692;51.074;-1.790;2024-03-08T14:20:33;15.02;;;7.35;;